sensor_id;sensor_type;location;lat;lon;timestamp;P1;durP1;ratioP1;P2;durP2;ratioP2
13943;SDS011;7044;53.286;8.534;2022-09-24T00:00:43;11.20;;;10.00;;
13943;SDS011;7044;53.286;8.534;2022-09-24T00:03:16;11.05;;;9.95;;
13943;SDS011;7044;53.286;8.534;2022-09-24T00:05:43;11.85;;;9.35;;
13943;SDS011;7044;53.286;8.534;2022-09-24T00:08:11;13.30;;;9.68;;
13943;SDS011;7044;53.286;8.534;2022-09-24T00:10:40;10.73;;;9.13;;
13943;SDS011;7044;53.286;8.534;2022-09-24T00:13:09;12.68;;;9.60;;
13943;SDS011;7044;53.286;8.534;2022-09-24T00:15:39;12.02;;;9.40;;
13943;SDS011;7044;53.286;8.534;2022-09-24T00:18:09;16.00;;;10.18;;
13943;SDS011;7044;53.286;8.534;2022-09-24T00:20:37;11.55;;;9.85;;
13943;SDS011;7044;53.286;8.534;2022-09-24T00:23:04;14.90;;;10.65;;
13943;SDS011;7044;53.286;8.534;2022-09-24T00:25:32;13.95;;;10.60;;
13943;SDS011;7044;53.286;8.534;2022-09-24T00:28:16;15.10;;;11.20;;
13943;SDS011;7044;53.286;8.534;2022-09-24T00:30:43;14.88;;;11.18;;
13943;SDS011;7044;53.286;8.534;2022-09-24T00:33:11;15.90;;;12.18;;
13943;SDS011;7044;53.286;8.534;2022-09-24T00:35:38;15.27;;;11.60;;
13943;SDS011;7044;53.286;8.534;2022-09-24T00:38:05;15.98;;;12.30;;
13943;SDS011;7044;53.286;8.534;2022-09-24T00:40:33;14.57;;;11.82;;
13943;SDS011;7044;53.286;8.534;2022-09-24T00:43:01;17.02;;;11.88;;
13943;SDS011;7044;53.286;8.534;2022-09-24T00:45:28;13.88;;;11.95;;
13943;SDS011;7044;53.286;8.534;2022-09-24T00:47:56;15.68;;;12.50;;
13943;SDS011;7044;53.286;8.534;2022-09-24T00:50:26;16.73;;;12.93;;
13943;SDS011;7044;53.286;8.534;2022-09-24T00:52:56;18.70;;;12.57;;
13943;SDS011;7044;53.286;8.534;2022-09-24T00:55:24;18.50;;;12.73;;
13943;SDS011;7044;53.286;8.534;2022-09-24T00:57:53;17.00;;;12.98;;
13943;SDS011;7044;53.286;8.534;2022-09-24T01:00:22;21.65;;;14.07;;
13943;SDS011;7044;53.286;8.534;2022-09-24T01:02:51;19.33;;;13.30;;
13943;SDS011;7044;53.286;8.534;2022-09-24T01:05:21;15.43;;;12.90;;
13943;SDS011;7044;53.286;8.534;2022-09-24T01:07:49;15.73;;;13.05;;
13943;SDS011;7044;53.286;8.534;2022-09-24T01:10:16;16.13;;;14.20;;
13943;SDS011;7044;53.286;8.534;2022-09-24T01:13:06;16.38;;;13.57;;
13943;SDS011;7044;53.286;8.534;2022-09-24T01:15:42;17.90;;;14.15;;
13943;SDS011;7044;53.286;8.534;2022-09-24T01:18:16;19.20;;;14.20;;
13943;SDS011;7044;53.286;8.534;2022-09-24T01:20:58;19.38;;;14.65;;
13943;SDS011;7044;53.286;8.534;2022-09-24T01:23:55;17.83;;;14.70;;
13943;SDS011;7044;53.286;8.534;2022-09-24T01:26:47;21.60;;;15.48;;
13943;SDS011;7044;53.286;8.534;2022-09-24T01:29:23;22.70;;;14.60;;
13943;SDS011;7044;53.286;8.534;2022-09-24T01:31:56;19.48;;;15.02;;
13943;SDS011;7044;53.286;8.534;2022-09-24T01:34:29;19.48;;;14.70;;
13943;SDS011;7044;53.286;8.534;2022-09-24T01:37:02;19.02;;;14.80;;
13943;SDS011;7044;53.286;8.534;2022-09-24T01:39:30;19.02;;;15.02;;
13943;SDS011;7044;53.286;8.534;2022-09-24T01:41:59;22.35;;;15.18;;
13943;SDS011;7044;53.286;8.534;2022-09-24T01:44:28;20.85;;;15.35;;
13943;SDS011;7044;53.286;8.534;2022-09-24T01:46:55;20.77;;;15.18;;
13943;SDS011;7044;53.286;8.534;2022-09-24T01:49:23;20.33;;;15.90;;
13943;SDS011;7044;53.286;8.534;2022-09-24T01:51:51;18.13;;;14.60;;
13943;SDS011;7044;53.286;8.534;2022-09-24T01:54:24;18.17;;;14.15;;
13943;SDS011;7044;53.286;8.534;2022-09-24T01:56:55;18.80;;;15.05;;
13943;SDS011;7044;53.286;8.534;2022-09-24T01:59:30;19.55;;;14.18;;
13943;SDS011;7044;53.286;8.534;2022-09-24T02:02:03;21.88;;;14.25;;
13943;SDS011;7044;53.286;8.534;2022-09-24T02:04:34;18.52;;;14.02;;
13943;SDS011;7044;53.286;8.534;2022-09-24T02:07:08;24.17;;;15.18;;
13943;SDS011;7044;53.286;8.534;2022-09-24T02:09:40;20.30;;;16.10;;
13943;SDS011;7044;53.286;8.534;2022-09-24T02:12:09;19.38;;;15.02;;
13943;SDS011;7044;53.286;8.534;2022-09-24T02:14:56;19.45;;;15.60;;
13943;SDS011;7044;53.286;8.534;2022-09-24T02:17:27;18.60;;;14.95;;
13943;SDS011;7044;53.286;8.534;2022-09-24T02:19:57;18.58;;;14.73;;
13943;SDS011;7044;53.286;8.534;2022-09-24T02:22:29;17.77;;;13.95;;
13943;SDS011;7044;53.286;8.534;2022-09-24T02:24:57;19.48;;;15.15;;
13943;SDS011;7044;53.286;8.534;2022-09-24T02:27:29;23.52;;;15.18;;
13943;SDS011;7044;53.286;8.534;2022-09-24T02:29:57;20.48;;;15.57;;
13943;SDS011;7044;53.286;8.534;2022-09-24T02:32:25;17.73;;;14.73;;
13943;SDS011;7044;53.286;8.534;2022-09-24T02:34:56;23.85;;;16.70;;
13943;SDS011;7044;53.286;8.534;2022-09-24T02:37:27;21.20;;;15.95;;
13943;SDS011;7044;53.286;8.534;2022-09-24T02:39:54;24.10;;;16.17;;
13943;SDS011;7044;53.286;8.534;2022-09-24T02:42:21;23.42;;;15.50;;
13943;SDS011;7044;53.286;8.534;2022-09-24T02:44:48;21.58;;;15.65;;
13943;SDS011;7044;53.286;8.534;2022-09-24T02:47:17;21.20;;;14.90;;
13943;SDS011;7044;53.286;8.534;2022-09-24T02:49:44;20.50;;;15.73;;
13943;SDS011;7044;53.286;8.534;2022-09-24T02:52:11;21.17;;;14.25;;
13943;SDS011;7044;53.286;8.534;2022-09-24T02:54:37;21.40;;;15.88;;
13943;SDS011;7044;53.286;8.534;2022-09-24T02:57:05;21.33;;;15.43;;
13943;SDS011;7044;53.286;8.534;2022-09-24T02:59:31;20.90;;;15.57;;
13943;SDS011;7044;53.286;8.534;2022-09-24T03:01:58;20.77;;;15.05;;
13943;SDS011;7044;53.286;8.534;2022-09-24T03:04:26;22.30;;;14.75;;
13943;SDS011;7044;53.286;8.534;2022-09-24T03:06:54;26.58;;;15.80;;
13943;SDS011;7044;53.286;8.534;2022-09-24T03:09:21;20.40;;;14.30;;
13943;SDS011;7044;53.286;8.534;2022-09-24T03:11:48;21.65;;;15.70;;
13943;SDS011;7044;53.286;8.534;2022-09-24T03:14:15;20.52;;;14.43;;
13943;SDS011;7044;53.286;8.534;2022-09-24T03:16:42;21.45;;;15.68;;
13943;SDS011;7044;53.286;8.534;2022-09-24T03:19:09;20.48;;;15.13;;
13943;SDS011;7044;53.286;8.534;2022-09-24T03:21:37;18.45;;;15.05;;
13943;SDS011;7044;53.286;8.534;2022-09-24T03:24:03;22.00;;;15.02;;
13943;SDS011;7044;53.286;8.534;2022-09-24T03:26:30;27.45;;;16.23;;
13943;SDS011;7044;53.286;8.534;2022-09-24T03:28:57;24.00;;;15.07;;
13943;SDS011;7044;53.286;8.534;2022-09-24T03:31:24;19.65;;;15.65;;
13943;SDS011;7044;53.286;8.534;2022-09-24T03:33:49;21.42;;;16.20;;
13943;SDS011;7044;53.286;8.534;2022-09-24T03:36:18;23.77;;;16.00;;
13943;SDS011;7044;53.286;8.534;2022-09-24T03:38:48;24.35;;;15.95;;
13943;SDS011;7044;53.286;8.534;2022-09-24T03:41:17;21.58;;;16.20;;
13943;SDS011;7044;53.286;8.534;2022-09-24T03:43:44;23.05;;;15.27;;
13943;SDS011;7044;53.286;8.534;2022-09-24T03:46:11;23.10;;;15.00;;
13943;SDS011;7044;53.286;8.534;2022-09-24T03:48:40;21.80;;;15.52;;
13943;SDS011;7044;53.286;8.534;2022-09-24T03:51:08;20.95;;;15.73;;
13943;SDS011;7044;53.286;8.534;2022-09-24T03:53:36;20.90;;;15.25;;
13943;SDS011;7044;53.286;8.534;2022-09-24T03:56:05;22.20;;;15.43;;
13943;SDS011;7044;53.286;8.534;2022-09-24T03:58:33;19.70;;;14.02;;
13943;SDS011;7044;53.286;8.534;2022-09-24T04:01:03;22.60;;;14.18;;
13943;SDS011;7044;53.286;8.534;2022-09-24T04:03:30;20.70;;;14.35;;
13943;SDS011;7044;53.286;8.534;2022-09-24T04:05:57;21.13;;;14.15;;
13943;SDS011;7044;53.286;8.534;2022-09-24T04:08:24;21.92;;;14.55;;
13943;SDS011;7044;53.286;8.534;2022-09-24T04:10:51;19.10;;;13.68;;
13943;SDS011;7044;53.286;8.534;2022-09-24T04:13:20;21.67;;;14.07;;
13943;SDS011;7044;53.286;8.534;2022-09-24T04:15:47;20.60;;;14.50;;
13943;SDS011;7044;53.286;8.534;2022-09-24T04:18:14;19.30;;;14.25;;
13943;SDS011;7044;53.286;8.534;2022-09-24T04:20:41;17.73;;;13.95;;
13943;SDS011;7044;53.286;8.534;2022-09-24T04:23:08;20.15;;;14.05;;
13943;SDS011;7044;53.286;8.534;2022-09-24T04:25:35;19.50;;;14.40;;
13943;SDS011;7044;53.286;8.534;2022-09-24T04:28:05;17.80;;;14.27;;
13943;SDS011;7044;53.286;8.534;2022-09-24T04:30:34;21.65;;;14.43;;
13943;SDS011;7044;53.286;8.534;2022-09-24T04:33:02;19.58;;;14.48;;
13943;SDS011;7044;53.286;8.534;2022-09-24T04:35:30;18.90;;;14.32;;
13943;SDS011;7044;53.286;8.534;2022-09-24T04:37:59;25.48;;;14.90;;
13943;SDS011;7044;53.286;8.534;2022-09-24T04:40:26;18.58;;;13.85;;
13943;SDS011;7044;53.286;8.534;2022-09-24T04:42:54;20.70;;;14.40;;
13943;SDS011;7044;53.286;8.534;2022-09-24T04:45:21;19.23;;;13.90;;
13943;SDS011;7044;53.286;8.534;2022-09-24T04:47:50;18.67;;;14.50;;
13943;SDS011;7044;53.286;8.534;2022-09-24T04:50:20;18.02;;;13.93;;
13943;SDS011;7044;53.286;8.534;2022-09-24T04:52:47;20.63;;;14.35;;
13943;SDS011;7044;53.286;8.534;2022-09-24T04:55:14;20.13;;;14.77;;
13943;SDS011;7044;53.286;8.534;2022-09-24T04:57:41;23.13;;;15.48;;
13943;SDS011;7044;53.286;8.534;2022-09-24T05:00:10;19.75;;;14.88;;
13943;SDS011;7044;53.286;8.534;2022-09-24T05:02:40;25.80;;;15.80;;
13943;SDS011;7044;53.286;8.534;2022-09-24T05:05:08;22.75;;;15.65;;
13943;SDS011;7044;53.286;8.534;2022-09-24T05:07:36;24.10;;;16.02;;
13943;SDS011;7044;53.286;8.534;2022-09-24T05:10:04;21.48;;;17.13;;
13943;SDS011;7044;53.286;8.534;2022-09-24T05:12:32;23.75;;;16.23;;
13943;SDS011;7044;53.286;8.534;2022-09-24T05:15:00;24.77;;;17.23;;
13943;SDS011;7044;53.286;8.534;2022-09-24T05:17:27;26.17;;;17.40;;
13943;SDS011;7044;53.286;8.534;2022-09-24T05:19:54;27.33;;;17.55;;
13943;SDS011;7044;53.286;8.534;2022-09-24T05:22:23;23.67;;;17.35;;
13943;SDS011;7044;53.286;8.534;2022-09-24T05:24:51;27.40;;;18.02;;
13943;SDS011;7044;53.286;8.534;2022-09-24T05:27:18;25.45;;;17.30;;
13943;SDS011;7044;53.286;8.534;2022-09-24T05:29:45;23.73;;;17.20;;
13943;SDS011;7044;53.286;8.534;2022-09-24T05:32:13;29.02;;;19.20;;
13943;SDS011;7044;53.286;8.534;2022-09-24T05:34:42;26.00;;;18.77;;
13943;SDS011;7044;53.286;8.534;2022-09-24T05:37:09;24.85;;;17.05;;
13943;SDS011;7044;53.286;8.534;2022-09-24T05:39:39;26.45;;;17.42;;
13943;SDS011;7044;53.286;8.534;2022-09-24T05:42:07;29.05;;;18.60;;
13943;SDS011;7044;53.286;8.534;2022-09-24T05:44:34;26.27;;;18.50;;
13943;SDS011;7044;53.286;8.534;2022-09-24T05:47:02;27.65;;;19.40;;
13943;SDS011;7044;53.286;8.534;2022-09-24T05:49:28;28.83;;;19.08;;
13943;SDS011;7044;53.286;8.534;2022-09-24T05:51:56;26.13;;;19.27;;
13943;SDS011;7044;53.286;8.534;2022-09-24T05:54:23;26.27;;;18.80;;
13943;SDS011;7044;53.286;8.534;2022-09-24T05:56:51;25.75;;;18.75;;
13943;SDS011;7044;53.286;8.534;2022-09-24T05:59:18;27.55;;;19.67;;
13943;SDS011;7044;53.286;8.534;2022-09-24T06:01:45;27.70;;;20.02;;
13943;SDS011;7044;53.286;8.534;2022-09-24T06:04:13;27.70;;;19.17;;
13943;SDS011;7044;53.286;8.534;2022-09-24T06:06:40;32.92;;;20.67;;
13943;SDS011;7044;53.286;8.534;2022-09-24T06:09:07;32.35;;;20.30;;
13943;SDS011;7044;53.286;8.534;2022-09-24T06:11:34;29.67;;;19.90;;
13943;SDS011;7044;53.286;8.534;2022-09-24T06:14:02;30.25;;;20.88;;
13943;SDS011;7044;53.286;8.534;2022-09-24T06:16:31;32.15;;;21.42;;
13943;SDS011;7044;53.286;8.534;2022-09-24T06:18:58;34.28;;;20.40;;
13943;SDS011;7044;53.286;8.534;2022-09-24T06:21:25;28.50;;;21.33;;
13943;SDS011;7044;53.286;8.534;2022-09-24T06:23:52;28.35;;;20.15;;
13943;SDS011;7044;53.286;8.534;2022-09-24T06:26:19;28.52;;;20.80;;
13943;SDS011;7044;53.286;8.534;2022-09-24T06:28:45;27.42;;;20.75;;
13943;SDS011;7044;53.286;8.534;2022-09-24T06:31:13;30.38;;;20.95;;
13943;SDS011;7044;53.286;8.534;2022-09-24T06:33:40;30.98;;;20.60;;
13943;SDS011;7044;53.286;8.534;2022-09-24T06:36:07;29.55;;;19.77;;
13943;SDS011;7044;53.286;8.534;2022-09-24T06:38:34;29.52;;;21.25;;
13943;SDS011;7044;53.286;8.534;2022-09-24T06:41:04;29.08;;;20.05;;
13943;SDS011;7044;53.286;8.534;2022-09-24T06:43:31;29.00;;;20.15;;
13943;SDS011;7044;53.286;8.534;2022-09-24T06:45:59;30.58;;;20.98;;
13943;SDS011;7044;53.286;8.534;2022-09-24T06:48:29;29.42;;;21.05;;
13943;SDS011;7044;53.286;8.534;2022-09-24T06:50:56;29.13;;;20.05;;
13943;SDS011;7044;53.286;8.534;2022-09-24T06:53:23;26.55;;;19.25;;
13943;SDS011;7044;53.286;8.534;2022-09-24T06:55:50;27.48;;;19.60;;
13943;SDS011;7044;53.286;8.534;2022-09-24T06:58:19;24.92;;;18.02;;
13943;SDS011;7044;53.286;8.534;2022-09-24T07:00:50;30.40;;;20.75;;
13943;SDS011;7044;53.286;8.534;2022-09-24T07:03:22;29.50;;;20.48;;
13943;SDS011;7044;53.286;8.534;2022-09-24T07:05:50;34.95;;;20.40;;
13943;SDS011;7044;53.286;8.534;2022-09-24T07:08:17;27.40;;;20.45;;
13943;SDS011;7044;53.286;8.534;2022-09-24T07:10:45;30.88;;;20.10;;
13943;SDS011;7044;53.286;8.534;2022-09-24T07:13:13;28.90;;;19.65;;
13943;SDS011;7044;53.286;8.534;2022-09-24T07:15:41;29.05;;;20.02;;
13943;SDS011;7044;53.286;8.534;2022-09-24T07:18:09;31.45;;;21.95;;
13943;SDS011;7044;53.286;8.534;2022-09-24T07:20:37;17.05;;;11.35;;
13943;SDS011;7044;53.286;8.534;2022-09-24T07:23:06;29.50;;;21.13;;
13943;SDS011;7044;53.286;8.534;2022-09-24T07:25:35;30.67;;;21.35;;
13943;SDS011;7044;53.286;8.534;2022-09-24T07:28:03;29.73;;;19.73;;
13943;SDS011;7044;53.286;8.534;2022-09-24T07:30:30;29.88;;;20.88;;
13943;SDS011;7044;53.286;8.534;2022-09-24T07:32:58;31.67;;;20.67;;
13943;SDS011;7044;53.286;8.534;2022-09-24T07:35:25;26.83;;;19.23;;
13943;SDS011;7044;53.286;8.534;2022-09-24T07:37:56;32.40;;;21.80;;
13943;SDS011;7044;53.286;8.534;2022-09-24T07:40:25;31.40;;;20.98;;
13943;SDS011;7044;53.286;8.534;2022-09-24T07:42:53;29.50;;;21.15;;
13943;SDS011;7044;53.286;8.534;2022-09-24T07:45:21;30.88;;;21.23;;
13943;SDS011;7044;53.286;8.534;2022-09-24T07:47:55;30.73;;;20.27;;
13943;SDS011;7044;53.286;8.534;2022-09-24T07:50:23;31.92;;;20.40;;
13943;SDS011;7044;53.286;8.534;2022-09-24T07:52:51;29.73;;;20.67;;
13943;SDS011;7044;53.286;8.534;2022-09-24T07:55:18;29.90;;;20.55;;
13943;SDS011;7044;53.286;8.534;2022-09-24T07:57:47;27.40;;;20.02;;
13943;SDS011;7044;53.286;8.534;2022-09-24T08:00:15;26.67;;;19.35;;
13943;SDS011;7044;53.286;8.534;2022-09-24T08:02:42;36.08;;;21.52;;
13943;SDS011;7044;53.286;8.534;2022-09-24T08:05:09;26.58;;;20.15;;
13943;SDS011;7044;53.286;8.534;2022-09-24T08:07:36;32.47;;;21.13;;
13943;SDS011;7044;53.286;8.534;2022-09-24T08:10:04;35.10;;;20.27;;
13943;SDS011;7044;53.286;8.534;2022-09-24T08:12:31;29.38;;;20.23;;
13943;SDS011;7044;53.286;8.534;2022-09-24T08:14:59;27.95;;;19.77;;
13943;SDS011;7044;53.286;8.534;2022-09-24T08:17:26;29.60;;;20.90;;
13943;SDS011;7044;53.286;8.534;2022-09-24T08:19:52;30.75;;;21.85;;
13943;SDS011;7044;53.286;8.534;2022-09-24T08:22:20;33.15;;;21.85;;
13943;SDS011;7044;53.286;8.534;2022-09-24T08:24:47;31.13;;;22.25;;
13943;SDS011;7044;53.286;8.534;2022-09-24T08:27:14;33.13;;;22.05;;
13943;SDS011;7044;53.286;8.534;2022-09-24T08:29:41;33.63;;;22.15;;
13943;SDS011;7044;53.286;8.534;2022-09-24T08:32:09;35.00;;;22.08;;
13943;SDS011;7044;53.286;8.534;2022-09-24T08:34:37;32.35;;;21.80;;
13943;SDS011;7044;53.286;8.534;2022-09-24T08:37:04;33.58;;;22.23;;
13943;SDS011;7044;53.286;8.534;2022-09-24T08:39:31;29.67;;;21.60;;
13943;SDS011;7044;53.286;8.534;2022-09-24T08:42:00;32.40;;;22.58;;
13943;SDS011;7044;53.286;8.534;2022-09-24T08:44:29;32.25;;;20.85;;
13943;SDS011;7044;53.286;8.534;2022-09-24T08:47:23;27.52;;;20.13;;
13943;SDS011;7044;53.286;8.534;2022-09-24T08:50:01;30.85;;;21.27;;
13943;SDS011;7044;53.286;8.534;2022-09-24T08:55:33;25.85;;;19.70;;
13943;SDS011;7044;53.286;8.534;2022-09-24T08:58:07;28.38;;;20.50;;
13943;SDS011;7044;53.286;8.534;2022-09-24T09:00:48;29.48;;;20.08;;
13943;SDS011;7044;53.286;8.534;2022-09-24T09:03:22;28.33;;;20.42;;
13943;SDS011;7044;53.286;8.534;2022-09-24T09:05:58;36.05;;;21.00;;
13943;SDS011;7044;53.286;8.534;2022-09-24T09:08:29;32.38;;;20.23;;
13943;SDS011;7044;53.286;8.534;2022-09-24T09:11:03;27.60;;;20.02;;
13943;SDS011;7044;53.286;8.534;2022-09-24T09:13:34;24.48;;;18.83;;
13943;SDS011;7044;53.286;8.534;2022-09-24T09:16:05;27.25;;;19.48;;
13943;SDS011;7044;53.286;8.534;2022-09-24T09:18:41;30.88;;;19.90;;
13943;SDS011;7044;53.286;8.534;2022-09-24T09:21:11;27.13;;;20.23;;
13943;SDS011;7044;53.286;8.534;2022-09-24T09:23:43;27.73;;;20.33;;
13943;SDS011;7044;53.286;8.534;2022-09-24T09:26:13;30.58;;;19.33;;
13943;SDS011;7044;53.286;8.534;2022-09-24T09:28:41;28.83;;;20.33;;
13943;SDS011;7044;53.286;8.534;2022-09-24T09:31:10;28.52;;;20.08;;
13943;SDS011;7044;53.286;8.534;2022-09-24T09:33:51;30.48;;;19.95;;
13943;SDS011;7044;53.286;8.534;2022-09-24T09:36:34;27.58;;;18.67;;
13943;SDS011;7044;53.286;8.534;2022-09-24T09:39:16;27.75;;;19.63;;
13943;SDS011;7044;53.286;8.534;2022-09-24T09:41:54;25.65;;;19.33;;
13943;SDS011;7044;53.286;8.534;2022-09-24T09:44:28;28.95;;;19.60;;
13943;SDS011;7044;53.286;8.534;2022-09-24T09:46:58;30.35;;;20.52;;
13943;SDS011;7044;53.286;8.534;2022-09-24T09:49:32;35.13;;;21.70;;
13943;SDS011;7044;53.286;8.534;2022-09-24T09:52:03;30.80;;;19.98;;
13943;SDS011;7044;53.286;8.534;2022-09-24T09:54:38;32.80;;;20.35;;
13943;SDS011;7044;53.286;8.534;2022-09-24T09:57:08;31.23;;;19.15;;
13943;SDS011;7044;53.286;8.534;2022-09-24T09:59:40;34.78;;;20.00;;
13943;SDS011;7044;53.286;8.534;2022-09-24T10:02:14;34.53;;;18.70;;
13943;SDS011;7044;53.286;8.534;2022-09-24T10:04:50;29.20;;;18.30;;
13943;SDS011;7044;53.286;8.534;2022-09-24T10:07:19;34.42;;;19.38;;
13943;SDS011;7044;53.286;8.534;2022-09-24T10:09:45;39.35;;;21.67;;
13943;SDS011;7044;53.286;8.534;2022-09-24T10:12:24;30.63;;;19.65;;
13943;SDS011;7044;53.286;8.534;2022-09-24T10:14:59;29.58;;;19.52;;
13943;SDS011;7044;53.286;8.534;2022-09-24T10:17:32;30.83;;;18.17;;
13943;SDS011;7044;53.286;8.534;2022-09-24T10:20:05;25.13;;;17.80;;
13943;SDS011;7044;53.286;8.534;2022-09-24T10:22:35;28.10;;;19.13;;
13943;SDS011;7044;53.286;8.534;2022-09-24T10:25:03;29.70;;;17.77;;
13943;SDS011;7044;53.286;8.534;2022-09-24T10:27:32;31.77;;;19.45;;
13943;SDS011;7044;53.286;8.534;2022-09-24T10:30:00;25.15;;;18.00;;
13943;SDS011;7044;53.286;8.534;2022-09-24T10:32:54;29.33;;;19.00;;
13943;SDS011;7044;53.286;8.534;2022-09-24T10:35:24;29.33;;;18.30;;
13943;SDS011;7044;53.286;8.534;2022-09-24T10:37:53;27.70;;;17.27;;
13943;SDS011;7044;53.286;8.534;2022-09-24T10:40:22;29.80;;;18.60;;
13943;SDS011;7044;53.286;8.534;2022-09-24T10:42:56;25.25;;;17.35;;
13943;SDS011;7044;53.286;8.534;2022-09-24T10:45:27;28.80;;;18.17;;
13943;SDS011;7044;53.286;8.534;2022-09-24T10:48:02;30.85;;;18.23;;
13943;SDS011;7044;53.286;8.534;2022-09-24T10:50:36;28.48;;;17.30;;
13943;SDS011;7044;53.286;8.534;2022-09-24T10:53:12;29.20;;;18.00;;
13943;SDS011;7044;53.286;8.534;2022-09-24T10:55:42;30.33;;;18.25;;
13943;SDS011;7044;53.286;8.534;2022-09-24T10:58:20;29.55;;;18.33;;
13943;SDS011;7044;53.286;8.534;2022-09-24T11:01:03;24.52;;;15.75;;
13943;SDS011;7044;53.286;8.534;2022-09-24T11:03:42;25.25;;;17.60;;
13943;SDS011;7044;53.286;8.534;2022-09-24T11:06:28;27.95;;;17.83;;
13943;SDS011;7044;53.286;8.534;2022-09-24T11:09:12;31.40;;;19.20;;
13943;SDS011;7044;53.286;8.534;2022-09-24T11:11:49;28.17;;;17.48;;
13943;SDS011;7044;53.286;8.534;2022-09-24T11:14:36;25.15;;;16.52;;
13943;SDS011;7044;53.286;8.534;2022-09-24T11:17:25;26.70;;;16.48;;
13943;SDS011;7044;53.286;8.534;2022-09-24T11:20:02;25.80;;;18.55;;
13943;SDS011;7044;53.286;8.534;2022-09-24T11:22:48;26.20;;;17.50;;
13943;SDS011;7044;53.286;8.534;2022-09-24T11:25:28;28.73;;;17.77;;
13943;SDS011;7044;53.286;8.534;2022-09-24T11:28:05;29.92;;;17.70;;
13943;SDS011;7044;53.286;8.534;2022-09-24T11:30:46;24.17;;;17.05;;
13943;SDS011;7044;53.286;8.534;2022-09-24T11:33:25;32.35;;;19.50;;
13943;SDS011;7044;53.286;8.534;2022-09-24T11:36:12;27.35;;;17.40;;
13943;SDS011;7044;53.286;8.534;2022-09-24T11:38:52;28.23;;;18.13;;
13943;SDS011;7044;53.286;8.534;2022-09-24T11:41:31;28.13;;;18.27;;
13943;SDS011;7044;53.286;8.534;2022-09-24T11:44:12;29.40;;;20.42;;
13943;SDS011;7044;53.286;8.534;2022-09-24T11:46:57;26.85;;;18.45;;
13943;SDS011;7044;53.286;8.534;2022-09-24T11:49:41;27.92;;;18.60;;
13943;SDS011;7044;53.286;8.534;2022-09-24T11:52:23;27.90;;;18.98;;
13943;SDS011;7044;53.286;8.534;2022-09-24T11:54:59;29.00;;;18.88;;
13943;SDS011;7044;53.286;8.534;2022-09-24T11:57:31;29.30;;;18.60;;
13943;SDS011;7044;53.286;8.534;2022-09-24T12:00:03;27.05;;;17.25;;
13943;SDS011;7044;53.286;8.534;2022-09-24T12:02:33;27.00;;;16.48;;
13943;SDS011;7044;53.286;8.534;2022-09-24T12:05:06;25.52;;;16.38;;
13943;SDS011;7044;53.286;8.534;2022-09-24T12:07:41;27.67;;;16.73;;
13943;SDS011;7044;53.286;8.534;2022-09-24T12:10:23;24.45;;;15.93;;
13943;SDS011;7044;53.286;8.534;2022-09-24T12:12:56;25.88;;;16.02;;
13943;SDS011;7044;53.286;8.534;2022-09-24T12:15:29;29.45;;;17.33;;
13943;SDS011;7044;53.286;8.534;2022-09-24T12:18:05;26.98;;;16.67;;
13943;SDS011;7044;53.286;8.534;2022-09-24T12:20:40;25.65;;;17.20;;
13943;SDS011;7044;53.286;8.534;2022-09-24T12:23:11;27.10;;;17.38;;
13943;SDS011;7044;53.286;8.534;2022-09-24T12:25:43;24.73;;;15.45;;
13943;SDS011;7044;53.286;8.534;2022-09-24T12:28:12;25.15;;;16.50;;
13943;SDS011;7044;53.286;8.534;2022-09-24T12:31:03;24.25;;;16.52;;
13943;SDS011;7044;53.286;8.534;2022-09-24T12:33:54;23.70;;;15.95;;
13943;SDS011;7044;53.286;8.534;2022-09-24T12:36:27;24.50;;;17.02;;
13943;SDS011;7044;53.286;8.534;2022-09-24T12:39:04;27.95;;;16.30;;
13943;SDS011;7044;53.286;8.534;2022-09-24T12:41:36;21.25;;;15.60;;
13943;SDS011;7044;53.286;8.534;2022-09-24T12:44:05;23.50;;;15.75;;
13943;SDS011;7044;53.286;8.534;2022-09-24T12:46:39;26.25;;;15.98;;
13943;SDS011;7044;53.286;8.534;2022-09-24T12:49:14;19.85;;;13.93;;
13943;SDS011;7044;53.286;8.534;2022-09-24T12:51:48;22.08;;;14.95;;
13943;SDS011;7044;53.286;8.534;2022-09-24T12:54:19;21.63;;;14.45;;
13943;SDS011;7044;53.286;8.534;2022-09-24T12:56:52;20.65;;;14.32;;
13943;SDS011;7044;53.286;8.534;2022-09-24T12:59:44;19.17;;;13.25;;
13943;SDS011;7044;53.286;8.534;2022-09-24T13:02:13;18.67;;;13.88;;
13943;SDS011;7044;53.286;8.534;2022-09-24T13:04:43;20.90;;;14.15;;
13943;SDS011;7044;53.286;8.534;2022-09-24T13:10:18;19.90;;;13.63;;
13943;SDS011;7044;53.286;8.534;2022-09-24T13:12:49;19.23;;;13.65;;
13943;SDS011;7044;53.286;8.534;2022-09-24T13:15:22;21.30;;;13.45;;
13943;SDS011;7044;53.286;8.534;2022-09-24T13:18:02;19.92;;;13.52;;
13943;SDS011;7044;53.286;8.534;2022-09-24T13:20:55;21.05;;;13.80;;
13943;SDS011;7044;53.286;8.534;2022-09-24T13:23:31;21.55;;;13.18;;
13943;SDS011;7044;53.286;8.534;2022-09-24T13:26:08;19.55;;;12.82;;
13943;SDS011;7044;53.286;8.534;2022-09-24T13:28:50;21.17;;;14.13;;
13943;SDS011;7044;53.286;8.534;2022-09-24T13:31:24;17.77;;;13.57;;
13943;SDS011;7044;53.286;8.534;2022-09-24T13:34:10;21.13;;;13.98;;
13943;SDS011;7044;53.286;8.534;2022-09-24T13:36:42;20.27;;;13.88;;
13943;SDS011;7044;53.286;8.534;2022-09-24T13:39:12;22.42;;;14.35;;
13943;SDS011;7044;53.286;8.534;2022-09-24T13:41:46;19.98;;;14.07;;
13943;SDS011;7044;53.286;8.534;2022-09-24T13:44:21;21.95;;;14.25;;
13943;SDS011;7044;53.286;8.534;2022-09-24T13:46:55;16.92;;;13.07;;
13943;SDS011;7044;53.286;8.534;2022-09-24T13:49:25;22.27;;;13.48;;
13943;SDS011;7044;53.286;8.534;2022-09-24T13:51:56;20.80;;;13.43;;
13943;SDS011;7044;53.286;8.534;2022-09-24T13:54:32;19.00;;;13.77;;
13943;SDS011;7044;53.286;8.534;2022-09-24T13:57:01;21.92;;;13.20;;
13943;SDS011;7044;53.286;8.534;2022-09-24T13:59:37;20.27;;;13.52;;
13943;SDS011;7044;53.286;8.534;2022-09-24T14:02:17;20.92;;;13.77;;
13943;SDS011;7044;53.286;8.534;2022-09-24T14:04:52;17.98;;;13.00;;
13943;SDS011;7044;53.286;8.534;2022-09-24T14:07:21;20.98;;;13.57;;
13943;SDS011;7044;53.286;8.534;2022-09-24T14:09:49;19.48;;;13.13;;
13943;SDS011;7044;53.286;8.534;2022-09-24T14:12:26;25.10;;;13.85;;
13943;SDS011;7044;53.286;8.534;2022-09-24T14:14:54;20.30;;;13.10;;
13943;SDS011;7044;53.286;8.534;2022-09-24T14:17:22;22.30;;;14.05;;
13943;SDS011;7044;53.286;8.534;2022-09-24T14:19:53;21.17;;;13.90;;
13943;SDS011;7044;53.286;8.534;2022-09-24T14:22:22;22.65;;;14.25;;
13943;SDS011;7044;53.286;8.534;2022-09-24T14:24:53;20.02;;;13.70;;
13943;SDS011;7044;53.286;8.534;2022-09-24T14:27:22;22.45;;;13.50;;
13943;SDS011;7044;53.286;8.534;2022-09-24T14:29:52;20.40;;;13.48;;
13943;SDS011;7044;53.286;8.534;2022-09-24T14:32:25;19.33;;;14.18;;
13943;SDS011;7044;53.286;8.534;2022-09-24T14:34:57;23.65;;;14.85;;
13943;SDS011;7044;53.286;8.534;2022-09-24T14:37:26;16.30;;;12.95;;
13943;SDS011;7044;53.286;8.534;2022-09-24T14:39:57;20.40;;;14.63;;
13943;SDS011;7044;53.286;8.534;2022-09-24T14:42:27;26.10;;;16.08;;
13943;SDS011;7044;53.286;8.534;2022-09-24T14:45:00;22.30;;;15.02;;
13943;SDS011;7044;53.286;8.534;2022-09-24T14:47:29;28.30;;;15.63;;
13943;SDS011;7044;53.286;8.534;2022-09-24T14:49:56;24.35;;;15.60;;
13943;SDS011;7044;53.286;8.534;2022-09-24T14:52:25;27.15;;;15.45;;
13943;SDS011;7044;53.286;8.534;2022-09-24T14:55:03;21.25;;;15.73;;
13943;SDS011;7044;53.286;8.534;2022-09-24T14:57:39;20.92;;;15.45;;
13943;SDS011;7044;53.286;8.534;2022-09-24T15:00:21;22.80;;;15.30;;
13943;SDS011;7044;53.286;8.534;2022-09-24T15:02:50;22.23;;;16.02;;
13943;SDS011;7044;53.286;8.534;2022-09-24T15:05:22;23.75;;;16.60;;